Time;durP1;ratioP1;P1;durP2;ratioP2;P2;SDS_P1;SDS_P2;PMS_P1;PMS_P2;Temp;Humidity;BMP_temperature;BMP_pressure;BME280_temperature;BME280_humidity;BME280_pressure;Samples;Min_cycle;Max_cycle;Signal;HPM_P1;HPM_P2
2022/12/28 00:04:39;;;;;;;14.20;4.47;;;;;;;6.98;71.81;101051.97;10334409;28;20397;-66
2022/12/28 00:09:40;;;;;;;8.75;4.00;;;;;;;6.88;71.58;101051.94;10324045;28;20074;-66
2022/12/28 00:14:41;;;;;;;7.82;4.60;;;;;;;6.85;71.77;101037.03;10339045;28;20129;-67
2022/12/28 00:19:46;;;;;;;9.35;3.85;;;;;;;6.71;71.42;101032.00;10339461;28;20141;-67
2022/12/28 00:24:47;;;;;;;8.23;4.53;;;;;;;6.56;72.02;101023.53;10339743;28;20552;-67
2022/12/28 00:29:49;;;;;;;15.48;5.10;;;;;;;6.48;71.71;101020.69;10339996;28;20069;-67
2022/12/28 00:34:50;;;;;;;11.93;5.30;;;;;;;6.43;71.91;101010.38;10334043;28;20081;-66
2022/12/28 00:39:51;;;;;;;10.98;5.25;;;;;;;6.43;71.92;101001.53;10348945;28;20077;-67
2022/12/28 00:44:53;;;;;;;14.60;5.40;;;;;;;6.44;71.89;100974.69;10336173;28;20136;-67
2022/12/28 00:49:54;;;;;;;6.60;4.40;;;;;;;6.46;71.59;100970.06;10345721;28;20078;-67
2022/12/28 00:54:55;;;;;;;14.00;5.50;;;;;;;6.52;71.34;100968.69;10341485;28;20048;-67
2022/12/28 00:59:57;;;;;;;10.90;5.22;;;;;;;6.50;71.79;100938.59;10342032;28;20156;-67
2022/12/28 01:04:58;;;;;;;8.23;4.28;;;;;;;6.41;71.77;100934.06;10338925;28;20082;-67
2022/12/28 01:09:59;;;;;;;12.65;5.47;;;;;;;6.37;71.71;100921.97;10339528;28;20092;-67
2022/12/28 01:15:05;;;;;;;15.43;6.00;;;;;;;6.32;71.81;100922.38;10340255;28;20121;-67
2022/12/28 01:20:07;;;;;;;19.00;6.80;;;;;;;6.26;71.89;100921.09;10342123;28;20136;-67
2022/12/28 01:25:09;;;;;;;13.73;5.85;;;;;;;6.24;71.51;100908.81;10331721;28;20085;-66
2022/12/28 01:30:12;;;;;;;20.15;7.30;;;;;;;6.22;71.25;100892.97;10336823;28;20746;-66
2022/12/28 01:35:14;;;;;;;11.25;6.15;;;;;;;6.20;72.09;100873.56;10337519;28;20129;-67
2022/12/28 01:40:15;;;;;;;11.07;6.05;;;;;;;6.10;71.93;100884.19;10341760;28;20056;-67
2022/12/28 01:45:19;;;;;;;9.63;5.53;;;;;;;6.07;72.44;100894.28;10346884;28;20594;-67
2022/12/28 01:50:26;;;;;;;9.05;5.88;;;;;;;6.17;72.23;100889.84;10346244;28;20074;-66
2022/12/28 01:55:32;;;;;;;7.63;4.70;;;;;;;6.20;71.96;100889.59;10348319;28;20078;-66
2022/12/28 02:00:34;;;;;;;10.57;5.53;;;;;;;6.22;71.71;100884.97;10349041;28;20621;-68
2022/12/28 02:05:38;;;;;;;13.18;6.22;;;;;;;6.34;71.56;100875.03;10343217;28;20050;-68
2022/12/28 02:10:41;;;;;;;11.73;5.95;;;;;;;6.34;71.80;100867.00;10343622;28;20477;-67
2022/12/28 02:15:47;;;;;;;12.57;5.43;;;;;;;6.35;71.89;100871.34;10340201;28;20042;-68
2022/12/28 02:21:19;;;;;;;8.75;4.93;;;;;;;6.37;71.94;100868.56;10328195;28;20529;-68
2022/12/28 02:26:37;;;;;;;9.00;4.68;;;;;;;6.37;72.51;100856.03;10341524;28;20066;-66
2022/12/28 02:31:49;;;;;;;10.75;5.60;;;;;;;6.44;72.17;100846.53;10340600;28;20081;-68
2022/12/28 02:37:04;;;;;;;10.40;5.35;;;;;;;6.42;72.72;100848.47;10344797;28;20109;-68
2022/12/28 02:42:08;;;;;;;19.95;5.05;;;;;;;6.42;72.56;100831.59;10346741;28;20081;-67
2022/12/28 02:53:32;;;;;;;11.50;6.18;;;;;;;6.47;72.58;100810.69;10333632;28;20078;-67
2022/12/28 02:58:52;;;;;;;12.63;5.80;;;;;;;6.52;71.87;100805.78;10154427;29;20070;-66
2022/12/28 03:04:16;;;;;;;12.27;5.82;;;;;;;6.52;71.70;100800.44;10324493;28;20293;-67
2022/12/28 03:09:34;;;;;;;12.40;6.38;;;;;;;6.57;72.08;100805.34;10339788;28;20046;-66
2022/12/28 03:14:44;;;;;;;15.25;6.28;;;;;;;6.53;72.28;100805.63;10346784;28;20077;-68
2022/12/28 03:36:09;;;;;;;14.07;6.63;;;;;;;6.57;72.53;100765.28;10340993;28;20061;-66
2022/12/28 03:41:15;;;;;;;14.05;7.57;;;;;;;6.61;72.15;100753.34;10335792;28;20133;-67
2022/12/28 03:46:28;;;;;;;13.38;6.43;;;;;;;6.65;72.62;100760.91;10334719;28;20112;-68
2022/12/28 03:51:31;;;;;;;11.38;6.32;;;;;;;6.64;72.27;100740.56;10320580;28;20052;-66
2022/12/28 03:56:32;;;;;;;14.18;6.65;;;;;;;6.62;72.89;100731.84;10332095;28;20133;-68
2022/12/28 04:01:34;;;;;;;13.02;6.63;;;;;;;6.70;72.06;100712.44;10334133;28;20054;-67
2022/12/28 04:06:36;;;;;;;16.60;6.90;;;;;;;6.73;72.62;100709.47;10325363;28;20914;-69
2022/12/28 04:11:37;;;;;;;13.57;6.95;;;;;;;6.80;71.79;100713.25;10316412;28;20109;-67
2022/12/28 04:16:38;;;;;;;10.80;6.50;;;;;;;7.00;72.43;100711.41;10325112;28;20137;-67
2022/12/28 04:21:40;;;;;;;13.27;7.07;;;;;;;6.93;72.45;100703.13;10338039;28;20053;-68
2022/12/28 04:26:41;;;;;;;12.30;6.20;;;;;;;7.02;72.32;100704.06;10340815;28;20073;-68
2022/12/28 04:31:42;;;;;;;16.35;6.15;;;;;;;7.08;71.79;100706.16;10344853;28;20078;-67
2022/12/28 04:36:44;;;;;;;13.40;5.88;;;;;;;7.14;71.63;100680.69;10340112;28;20074;-67
2022/12/28 04:41:45;;;;;;;12.40;6.25;;;;;;;7.17;71.98;100684.91;10342015;28;20081;-67
2022/12/28 04:46:46;;;;;;;11.35;5.60;;;;;;;7.17;72.45;100683.09;10341109;28;20078;-68
2022/12/28 04:51:48;;;;;;;13.20;7.10;;;;;;;7.14;71.96;100678.03;10339972;28;20050;-67
2022/12/28 04:56:49;;;;;;;16.65;6.25;;;;;;;7.12;71.75;100671.97;10342388;28;20125;-67
2022/12/28 05:01:50;;;;;;;14.30;7.10;;;;;;;7.17;71.76;100659.03;10336057;28;20489;-68
2022/12/28 05:06:52;;;;;;;14.13;7.97;;;;;;;7.22;72.24;100663.94;10342958;28;20050;-67
2022/12/28 05:11:53;;;;;;;16.42;7.60;;;;;;;7.27;71.45;100664.34;10332752;28;20061;-66
2022/12/28 05:16:55;;;;;;;11.25;7.00;;;;;;;7.25;72.22;100669.00;10343205;28;20042;-67
2022/12/28 05:21:56;;;;;;;13.13;7.35;;;;;;;7.18;71.61;100657.19;10341607;28;20092;-67
2022/12/28 05:26:57;;;;;;;16.15;7.82;;;;;;;7.08;72.38;100651.88;10346242;28;20061;-67
2022/12/28 05:31:59;;;;;;;16.88;7.70;;;;;;;7.18;71.75;100646.50;10338199;28;20078;-67
2022/12/28 05:37:00;;;;;;;15.60;7.35;;;;;;;7.39;71.04;100640.94;10336609;28;20686;-68
2022/12/28 05:42:01;;;;;;;12.27;6.63;;;;;;;7.50;71.31;100624.66;10298409;28;20137;-67
2022/12/28 05:47:03;;;;;;;18.85;8.60;;;;;;;7.59;70.73;100618.41;10293713;28;20125;-68
2022/12/28 05:52:04;;;;;;;11.57;7.47;;;;;;;7.68;70.63;100611.31;10291952;28;20056;-67
2022/12/28 05:57:05;;;;;;;15.02;7.10;;;;;;;7.74;70.17;100606.22;10297496;28;20185;-67
2022/12/28 06:02:07;;;;;;;12.68;6.88;;;;;;;7.77;70.55;100594.38;10298675;28;20070;-67
2022/12/28 06:07:08;;;;;;;11.38;7.03;;;;;;;7.72;71.23;100581.44;10296792;28;20050;-67
2022/12/28 06:12:10;;;;;;;14.45;6.85;;;;;;;7.70;71.30;100575.41;10297136;28;20105;-67
2022/12/28 06:17:11;;;;;;;12.45;6.30;;;;;;;7.79;71.00;100570.97;10294931;28;20734;-67
2022/12/28 06:22:12;;;;;;;9.80;6.40;;;;;;;7.77;70.77;100577.47;10296603;28;20265;-68
2022/12/28 06:27:14;;;;;;;11.90;6.22;;;;;;;7.77;70.97;100572.94;10301126;28;20077;-68
2022/12/28 06:32:15;;;;;;;9.75;4.82;;;;;;;7.77;71.25;100567.59;10305054;28;20466;-68
2022/12/28 06:37:16;;;;;;;10.60;5.63;;;;;;;7.82;70.88;100562.66;10304643;28;20073;-68
2022/12/28 06:42:18;;;;;;;10.55;5.38;;;;;;;7.82;70.84;100551.94;10304654;28;20541;-68
2022/12/28 06:47:19;;;;;;;10.18;4.82;;;;;;;7.82;71.54;100554.63;10301509;28;20119;-68
2022/12/28 06:52:21;;;;;;;8.63;4.22;;;;;;;7.82;71.86;100551.06;10305364;28;20113;-68
2022/12/28 06:57:22;;;;;;;9.52;3.75;;;;;;;7.86;71.33;100539.06;10301486;28;20100;-68
2022/12/28 07:02:23;;;;;;;8.15;4.22;;;;;;;7.87;71.16;100540.75;10312652;28;20081;-67
2022/12/28 07:07:25;;;;;;;6.93;3.72;;;;;;;7.94;71.83;100525.78;10307192;28;20507;-67
2022/12/28 07:12:26;;;;;;;6.63;4.13;;;;;;;7.99;71.51;100522.63;10305014;28;20062;-67
2022/12/28 07:17:28;;;;;;;9.63;4.47;;;;;;;8.06;71.18;100519.19;10306693;28;20513;-67
2022/12/28 07:22:29;;;;;;;6.32;3.75;;;;;;;8.13;71.20;100514.03;10303588;28;20129;-66
2022/12/28 07:27:30;;;;;;;9.88;3.45;;;;;;;8.17;71.52;100503.84;10308523;28;20487;-67
2022/12/28 07:32:35;;;;;;;5.70;2.92;;;;;;;8.23;71.33;100514.78;10312525;28;20042;-67
2022/12/28 07:37:37;;;;;;;5.57;2.30;;;;;;;8.35;71.17;100515.34;10308866;28;20050;-65
2022/12/28 07:42:38;;;;;;;4.45;2.33;;;;;;;8.39;71.49;100518.56;10329226;28;20076;-67
2022/12/28 07:47:39;;;;;;;4.35;2.47;;;;;;;8.51;71.24;100515.50;10351574;28;20134;-66
2022/12/28 07:52:41;;;;;;;8.50;3.72;;;;;;;8.69;70.54;100503.88;10352084;28;20061;-66
2022/12/28 07:57:42;;;;;;;4.43;2.55;;;;;;;8.71;70.22;100502.72;10349348;28;20460;-66
2022/12/28 08:02:43;;;;;;;5.32;1.98;;;;;;;8.85;70.55;100495.91;10350235;28;20069;-66
2022/12/28 08:07:45;;;;;;;8.00;1.95;;;;;;;8.89;70.38;100491.06;10350998;28;20049;-66
2022/12/28 08:12:46;;;;;;;3.60;1.92;;;;;;;8.93;70.17;100479.84;10353571;28;20533;-67
2022/12/28 08:17:47;;;;;;;4.75;2.35;;;;;;;8.90;69.83;100473.97;10356795;28;20076;-66
2022/12/28 08:22:49;;;;;;;5.22;2.13;;;;;;;8.83;70.56;100479.16;10359879;28;20054;-66
2022/12/28 08:27:50;;;;;;;6.45;1.70;;;;;;;8.90;69.93;100473.97;10357573;28;20066;-66
2022/12/28 08:32:52;;;;;;;3.42;1.67;;;;;;;8.93;70.26;100471.81;10355730;28;20073;-66
2022/12/28 08:37:54;;;;;;;5.18;1.48;;;;;;;8.92;70.05;100472.81;10363378;28;20042;-66
2022/12/28 08:42:57;;;;;;;4.10;2.03;;;;;;;8.91;70.17;100473.81;10357636;28;20078;-67
2022/12/28 08:47:59;;;;;;;4.57;1.75;;;;;;;9.06;69.45;100471.38;10351051;28;21136;-66
2022/12/28 08:53:00;;;;;;;5.93;2.10;;;;;;;9.03;69.56;100474.34;10339322;28;20378;-67
2022/12/28 08:58:02;;;;;;;5.35;1.50;;;;;;;9.04;69.60;100480.56;10352906;28;20057;-67
2022/12/28 09:03:03;;;;;;;3.03;1.75;;;;;;;9.10;69.45;100486.13;10355237;28;20080;-66
2022/12/28 09:08:05;;;;;;;3.10;1.63;;;;;;;9.00;70.05;100487.25;10353618;28;20058;-66
2022/12/28 09:13:06;;;;;;;4.18;1.58;;;;;;;8.99;69.79;100497.13;10343796;28;20054;-66
2022/12/28 09:18:08;;;;;;;4.15;1.20;;;;;;;9.00;69.75;100493.44;10355838;28;20085;-66
2022/12/28 09:23:09;;;;;;;3.20;2.10;;;;;;;9.07;70.19;100485.59;10364168;28;20054;-65
2022/12/28 09:28:10;;;;;;;6.63;2.28;;;;;;;9.14;69.90;100481.25;10344829;28;20069;-66
2022/12/28 09:38:32;;;;;;;5.75;1.52;;;;;;;9.39;69.48;100473.28;10358057;28;20042;-65
2022/12/28 09:43:33;;;;;;;5.88;1.30;;;;;;;9.53;69.34;100476.13;10358474;28;20042;-67
2022/12/28 09:48:35;;;;;;;3.90;1.85;;;;;;;9.64;69.29;100474.16;10363929;28;20405;-67
2022/12/28 09:53:36;;;;;;;2.50;0.98;;;;;;;9.69;69.07;100477.97;10358082;28;20042;-67
2022/12/28 09:58:41;;;;;;;5.30;1.35;;;;;;;9.74;69.14;100466.75;10364477;28;20128;-67
2022/12/28 10:03:48;;;;;;;3.78;1.30;;;;;;;9.86;68.86;100478.00;10363192;28;20095;-67
2022/12/28 10:08:52;;;;;;;3.60;1.55;;;;;;;10.05;68.33;100469.59;10369289;28;20046;-67
2022/12/28 10:13:59;;;;;;;3.70;1.27;;;;;;;10.17;68.24;100464.72;10360513;28;20054;-67
2022/12/28 10:19:00;;;;;;;3.50;1.48;;;;;;;10.23;68.10;100461.34;10357812;28;20057;-67
2022/12/28 10:24:05;;;;;;;2.75;0.88;;;;;;;10.34;68.12;100457.47;10350891;28;20721;-66
2022/12/28 10:29:26;;;;;;;2.35;1.17;;;;;;;10.34;68.08;100448.59;10346180;28;20096;-69
2022/12/28 10:34:30;;;;;;;3.60;0.85;;;;;;;10.38;67.88;100439.16;10346768;28;20068;-66
2022/12/28 10:39:36;;;;;;;4.30;0.87;;;;;;;10.41;68.12;100442.34;10356436;28;20050;-66
2022/12/28 10:44:38;;;;;;;5.35;1.10;;;;;;;10.42;68.41;100427.88;10354266;28;20062;-66
2022/12/28 10:49:50;;;;;;;5.57;0.82;;;;;;;10.56;67.97;100422.81;10358595;28;20413;-66
2022/12/28 10:55:31;;;;;;;2.30;0.60;;;;;;;10.52;67.89;100417.81;10364606;28;20915;-66
2022/12/28 11:00:33;;;;;;;7.38;1.67;;;;;;;10.55;67.87;100419.28;10357210;28;20046;-71
2022/12/28 11:05:35;;;;;;;2.45;0.98;;;;;;;10.56;67.44;100412.88;10342596;28;20050;-68
2022/12/28 11:10:39;;;;;;;1.48;0.80;;;;;;;10.62;67.43;100409.50;10352470;28;20089;-67
2022/12/28 11:15:40;;;;;;;3.80;1.08;;;;;;;10.62;67.13;100397.91;10364982;28;20042;-72
2022/12/28 11:20:44;;;;;;;5.35;0.80;;;;;;;10.66;67.29;100391.19;10342225;28;20078;-69
2022/12/28 11:25:46;;;;;;;1.67;0.90;;;;;;;10.65;66.88;100392.19;10351059;28;20049;-71
2022/12/28 11:30:50;;;;;;;3.50;1.45;;;;;;;10.71;66.93;100372.69;10336162;28;20109;-67
2022/12/28 11:35:54;;;;;;;3.38;1.00;;;;;;;10.81;66.52;100359.84;10365889;28;20128;-72
2022/12/28 11:41:00;;;;;;;4.00;0.90;;;;;;;10.65;66.53;100354.56;10367182;28;20089;-71
2022/12/28 11:46:03;;;;;;;3.67;1.10;;;;;;;10.71;66.65;100341.25;10386358;28;20050;-68
2022/12/28 11:51:17;;;;;;;1.77;0.70;;;;;;;10.80;65.96;100330.44;10378697;28;20042;-71
2022/12/28 11:56:24;;;;;;;3.10;0.93;;;;;;;10.80;66.06;100323.22;10386274;28;20074;-68
2022/12/28 12:01:28;;;;;;;3.72;1.13;;;;;;;10.79;65.95;100318.84;10338375;28;20066;-74
2022/12/28 12:06:42;;;;;;;3.88;0.82;;;;;;;10.95;65.67;100311.69;10338315;28;20050;-73
2022/12/28 12:11:45;;;;;;;4.55;1.00;;;;;;;11.08;65.67;100299.31;10331048;28;20084;-72
2022/12/28 12:16:52;;;;;;;3.38;0.82;;;;;;;11.03;65.64;100295.50;10339065;28;20070;-71
2022/12/28 12:22:16;;;;;;;4.00;0.77;;;;;;;11.01;66.33;100287.59;10334011;28;20069;-70
2022/12/28 12:27:35;;;;;;;1.27;0.70;;;;;;;11.16;65.53;100282.28;10355648;28;20085;-70
2022/12/28 12:32:47;;;;;;;2.70;0.80;;;;;;;11.24;65.52;100278.69;10352850;28;20046;-72
2022/12/28 12:37:55;;;;;;;3.78;0.70;;;;;;;11.20;65.47;100261.22;10362968;28;20112;-71
2022/12/28 12:43:28;;;;;;;6.57;1.25;;;;;;;11.26;66.06;100258.63;10490763;23;20053;-71
2022/12/28 12:49:06;;;;;;;2.03;0.82;;;;;;;11.40;65.89;100253.47;10433663;28;20049;-71
2022/12/28 12:54:23;;;;;;;3.20;1.08;;;;;;;11.30;65.97;100259.94;10511792;22;20061;-71
2022/12/28 13:04:44;;;;;;;3.15;0.52;;;;;;;11.15;66.82;100258.22;2883719;26;19928;-91
2022/12/28 13:09:50;;;;;;;1.67;0.75;;;;;;;11.04;66.77;100249.59;10339261;28;20074;-89
2022/12/28 13:15:04;;;;;;;5.15;0.70;;;;;;;10.95;66.84;100247.16;10356587;28;20041;-90
2022/12/28 13:20:20;;;;;;;2.97;0.80;;;;;;;10.85;67.52;100242.00;10360514;28;20062;-89
2022/12/28 13:25:28;;;;;;;4.00;0.90;;;;;;;10.76;68.04;100235.84;10352543;28;20068;-91
2022/12/28 13:30:29;;;;;;;1.58;0.75;;;;;;;10.79;67.50;100222.06;10344963;28;20077;-88
2022/12/28 13:35:32;;;;;;;2.65;1.00;;;;;;;10.84;67.42;100225.06;10340494;28;20055;-89
2022/12/28 13:40:46;;;;;;;3.75;1.08;;;;;;;10.92;67.11;100216.09;10356518;28;20736;-89
2022/12/28 13:45:56;;;;;;;2.28;0.50;;;;;;;10.95;67.16;100204.94;10331610;28;20065;-90
2022/12/28 13:50:58;;;;;;;3.42;0.95;;;;;;;11.02;67.45;100205.91;10340467;28;20172;-89
2022/12/28 13:56:02;;;;;;;2.25;0.57;;;;;;;11.04;67.07;100205.72;10336333;28;20049;-88
2022/12/28 14:01:12;;;;;;;3.95;1.13;;;;;;;11.12;67.43;100194.88;10357456;28;20046;-89
2022/12/28 14:06:15;;;;;;;;;;;;;;;11.15;67.53;100190.97;10348544;28;20587;-90
2022/12/28 14:11:17;;;;;;;5.38;1.17;;;;;;;11.23;67.08;100178.25;10391008;28;19921;-89
2022/12/28 14:16:18;;;;;;;1.25;0.60;;;;;;;11.27;67.21;100176.88;10367706;28;20034;-89
2022/12/28 14:21:39;;;;;;;3.00;0.60;;;;;;;11.29;66.43;100166.78;10360556;28;20038;-88
2022/12/28 14:26:50;;;;;;;1.85;0.55;;;;;;;11.24;66.79;100169.19;10336146;28;20065;-87
2022/12/28 14:32:00;;;;;;;2.47;0.70;;;;;;;11.26;66.71;100163.63;10345608;28;20077;-86
2022/12/28 14:37:02;;;;;;;5.30;0.60;;;;;;;11.34;66.68;100160.00;10422541;23;20129;-71
2022/12/28 14:42:15;;;;;;;3.63;0.77;;;;;;;11.31;66.10;100155.81;10407697;28;20049;-72
2022/12/28 14:47:43;;;;;;;5.13;0.80;;;;;;;11.28;66.60;100156.19;10414284;28;20056;-70
2022/12/28 14:52:47;;;;;;;4.03;0.70;;;;;;;11.35;66.36;100158.97;10420976;28;20566;-69
2022/12/28 14:57:54;;;;;;;2.47;0.88;;;;;;;11.44;66.01;100147.09;10430717;28;20095;-70
2022/12/28 15:03:10;;;;;;;3.88;0.68;;;;;;;11.45;65.65;100146.91;10434391;28;20051;-72
2022/12/28 15:08:12;;;;;;;1.70;0.73;;;;;;;11.49;65.68;100148.22;10426879;28;20045;-71
2022/12/28 15:13:15;;;;;;;4.07;0.80;;;;;;;11.44;65.78;100137.16;10424121;28;20056;-68
2022/12/28 15:18:17;;;;;;;4.82;0.80;;;;;;;11.50;65.63;100127.50;10439142;28;20436;-70
2022/12/28 15:23:19;;;;;;;1.73;0.70;;;;;;;11.49;65.18;100112.38;10424043;28;20053;-72
2022/12/28 15:28:23;;;;;;;1.65;0.73;;;;;;;11.47;65.38;100101.81;10439384;28;20057;-68
2022/12/28 15:33:25;;;;;;;3.50;0.68;;;;;;;11.56;65.03;100090.94;10422426;28;20548;-68
2022/12/28 15:38:26;;;;;;;2.28;0.70;;;;;;;11.38;65.45;100081.41;10426016;28;20041;-67
2022/12/28 15:43:28;;;;;;;4.40;0.68;;;;;;;11.36;65.76;100077.22;10447576;28;20041;-68
2022/12/28 15:48:30;;;;;;;3.33;1.08;;;;;;;11.36;65.79;100070.00;10429731;28;20045;-69
2022/12/28 15:53:31;;;;;;;2.10;0.60;;;;;;;11.29;65.69;100078.00;10403132;28;20056;-69
2022/12/28 15:58:33;;;;;;;1.30;0.60;;;;;;;11.30;65.40;100058.13;10426067;28;20072;-71
2022/12/28 16:03:34;;;;;;;3.17;1.30;;;;;;;11.27;65.03;100057.66;10403407;28;20049;-71
2022/12/28 16:08:35;;;;;;;1.40;0.68;;;;;;;11.30;65.25;100054.59;10401285;28;20815;-71
2022/12/28 16:13:37;;;;;;;1.20;0.60;;;;;;;11.32;64.94;100064.13;10401281;28;20158;-71
2022/12/28 16:18:38;;;;;;;4.43;0.70;;;;;;;11.36;64.36;100059.22;10401704;28;20563;-70
2022/12/28 16:23:42;;;;;;;1.85;0.65;;;;;;;11.35;64.38;100056.72;10468375;22;20084;-63
2022/12/28 16:28:43;;;;;;;6.65;0.98;;;;;;;11.34;64.19;100039.75;10435977;28;20108;-64
2022/12/28 16:33:45;;;;;;;1.65;0.77;;;;;;;11.27;64.34;100053.09;10487536;22;20044;-90
2022/12/28 16:38:47;;;;;;;2.05;0.50;;;;;;;11.30;63.86;100058.13;10432435;28;20145;-90
2022/12/28 16:43:51;;;;;;;2.58;0.50;;;;;;;11.32;63.77;100048.00;10396401;28;20453;-91
2022/12/28 16:48:53;;;;;;;1.40;0.60;;;;;;;11.37;63.32;100050.09;10419006;28;20049;-89
2022/12/28 16:53:57;;;;;;;5.00;1.20;;;;;;;11.35;63.26;100054.03;10393018;28;20029;-92
2022/12/28 16:59:00;;;;;;;4.22;0.68;;;;;;;11.41;63.05;100053.25;10403229;28;20060;-90
2022/12/28 17:04:01;;;;;;;1.52;0.60;;;;;;;11.39;62.96;100042.69;10380367;28;20029;-91
2022/12/28 17:09:08;;;;;;;1.40;0.47;;;;;;;11.36;63.05;100043.06;10424616;28;20049;-91
2022/12/28 17:14:13;;;;;;;2.35;0.95;;;;;;;11.42;62.95;100041.50;10393684;28;20128;-90
2022/12/28 17:19:25;;;;;;;2.05;0.50;;;;;;;11.49;62.72;100028.91;10403555;28;20526;-90
2022/12/28 17:24:27;;;;;;;3.42;0.70;;;;;;;11.46;62.43;100046.28;10404693;28;21370;-91
2022/12/28 17:29:31;;;;;;;2.58;0.57;;;;;;;11.36;62.75;100037.69;10412494;28;20088;-92
2022/12/28 17:34:33;;;;;;;4.90;1.08;;;;;;;11.38;62.65;100024.88;10416725;23;20052;-71
2022/12/28 17:39:37;;;;;;;2.17;0.60;;;;;;;11.37;62.43;100033.97;10414375;28;20061;-64
2022/12/28 17:44:41;;;;;;;3.55;0.70;;;;;;;11.38;62.29;100018.66;10420818;28;20053;-65
2022/12/28 17:49:42;;;;;;;2.88;0.90;;;;;;;11.35;62.57;100008.28;10433781;28;20045;-65
2022/12/28 17:54:43;;;;;;;3.08;0.93;;;;;;;11.37;62.47;99992.78;10427682;28;20056;-63
2022/12/28 17:59:45;;;;;;;2.05;0.70;;;;;;;11.40;61.92;99984.31;10429119;28;20056;-66
2022/12/28 18:04:46;;;;;;;3.58;0.90;;;;;;;11.41;61.77;99972.53;10415582;28;20057;-67
2022/12/28 18:09:48;;;;;;;2.22;0.75;;;;;;;11.48;62.01;99959.97;10406738;28;20358;-66
2022/12/28 18:14:49;;;;;;;3.22;0.60;;;;;;;11.43;62.21;99962.41;10414677;28;20427;-66
2022/12/28 18:19:52;;;;;;;2.47;0.80;;;;;;;11.43;61.64;99944.41;10403541;28;20073;-67
2022/12/28 18:24:53;;;;;;;1.92;0.70;;;;;;;11.46;61.72;99946.72;10417847;28;20085;-66
2022/12/28 18:29:55;;;;;;;6.43;1.83;;;;;;;11.44;61.72;99931.78;10433628;28;20041;-64
2022/12/28 18:34:56;;;;;;;5.68;2.45;;;;;;;11.42;62.13;99926.59;10416962;28;20068;-65
2022/12/28 18:39:57;;;;;;;4.30;1.48;;;;;;;11.45;61.86;99914.59;10406817;28;20049;-66
2022/12/28 18:44:59;;;;;;;3.35;0.88;;;;;;;11.46;61.99;99898.25;10509989;22;20110;-89
2022/12/28 18:50:01;;;;;;;3.58;0.90;;;;;;;11.45;61.73;99899.31;10425106;28;20057;-90
2022/12/28 18:55:04;;;;;;;3.40;1.40;;;;;;;11.47;61.73;99885.63;10427489;28;20510;-90
2022/12/28 19:00:10;;;;;;;5.78;1.17;;;;;;;11.44;61.53;99876.09;10445473;28;20057;-89
2022/12/28 19:05:14;;;;;;;4.82;1.45;;;;;;;11.48;61.55;99869.28;10438127;28;20126;-90
2022/12/28 19:10:16;;;;;;;1.80;1.25;;;;;;;11.51;61.83;99877.00;10448964;28;20052;-88
2022/12/28 19:15:18;;;;;;;2.35;1.05;;;;;;;11.47;61.82;99866.78;10428265;28;20518;-90
2022/12/28 19:20:23;;;;;;;3.72;1.00;;;;;;;11.52;61.44;99853.59;10430149;28;20063;-89
2022/12/28 19:25:24;;;;;;;3.78;1.65;;;;;;;11.57;61.43;99850.31;10438145;28;20064;-90
2022/12/28 19:30:26;;;;;;;2.25;1.38;;;;;;;11.61;61.12;99847.06;10426458;28;20115;-90
2022/12/28 19:35:28;;;;;;;6.18;2.30;;;;;;;11.60;61.15;99831.91;10428227;28;20053;-90
2022/12/28 19:40:29;;;;;;;3.03;1.58;;;;;;;11.55;61.04;99834.34;10408411;28;20060;-89
2022/12/28 19:45:31;;;;;;;2.58;1.10;;;;;;;11.53;61.47;99822.94;10399398;28;20037;-91
2022/12/28 19:50:37;;;;;;;3.72;1.38;;;;;;;11.50;61.38;99807.19;10415561;28;20053;-91
2022/12/28 19:55:41;;;;;;;4.28;1.30;;;;;;;11.50;61.31;99812.59;10392662;28;20101;-90
2022/12/28 20:00:43;;;;;;;3.78;1.48;;;;;;;11.51;61.20;99812.41;10411801;28;20077;-92
2022/12/28 20:05:45;;;;;;;2.50;1.48;;;;;;;11.55;61.61;99814.69;10414706;28;20426;-90
2022/12/28 20:10:56;;;;;;;5.13;2.03;;;;;;;11.58;61.02;99800.84;10396050;28;20061;-91
2022/12/28 20:15:58;;;;;;;3.40;1.95;;;;;;;11.60;61.78;99802.31;10397090;28;21183;-91
2022/12/28 20:21:04;;;;;;;3.60;1.70;;;;;;;11.62;61.42;99792.16;10395329;28;20057;-91
2022/12/28 20:26:27;;;;;;;4.28;1.70;;;;;;;11.64;61.41;99786.59;10399011;28;20054;-91
2022/12/28 20:31:29;;;;;;;3.97;2.08;;;;;;;11.62;61.93;99776.00;10411751;28;20117;-89
2022/12/28 20:36:34;;;;;;;4.55;2.38;;;;;;;11.59;61.64;99773.72;10409467;28;20495;-89
2022/12/28 20:46:58;;;;;;;3.85;2.85;;;;;;;11.50;61.76;99758.75;10400965;28;20068;-91
2022/12/28 20:52:00;;;;;;;7.95;5.22;;;;;;;11.45;62.06;99763.88;10406148;28;20057;-90
2022/12/28 20:57:02;;;;;;;8.25;4.65;;;;;;;11.44;61.79;99760.38;10406059;28;20053;-91
2022/12/28 21:02:03;;;;;;;22.83;13.45;;;;;;;11.41;62.36;99762.63;10389195;28;20053;-91
2022/12/28 21:07:05;;;;;;;16.98;9.98;;;;;;;11.38;62.33;99744.19;10392462;28;20065;-91
2022/12/28 21:12:11;;;;;;;12.98;6.70;;;;;;;11.37;62.12;99742.50;10398325;28;20140;-91
2022/12/28 21:17:13;;;;;;;13.20;6.28;;;;;;;11.36;62.19;99741.69;10393025;28;20053;-91
2022/12/28 21:22:19;;;;;;;53.55;30.38;;;;;;;11.18;63.20;99739.47;10414172;28;20103;-90
2022/12/28 21:27:27;;;;;;;43.53;22.27;;;;;;;11.09;63.23;99738.78;10376397;23;20060;-67
2022/12/28 21:32:28;;;;;;;32.22;16.20;;;;;;;11.07;63.52;99737.31;10381771;28;20076;-68
2022/12/28 21:37:32;;;;;;;21.60;13.50;;;;;;;10.94;64.51;99726.44;10372598;28;20109;-66
2022/12/28 21:42:35;;;;;;;12.85;7.85;;;;;;;10.79;64.97;99730.03;10383189;28;20056;-66
2022/12/28 21:47:36;;;;;;;7.30;3.60;;;;;;;10.80;64.68;99718.28;10386762;28;20041;-65
2022/12/28 21:52:38;;;;;;;4.68;2.70;;;;;;;10.75;65.19;99706.44;10383239;28;20111;-68
2022/12/28 21:57:39;;;;;;;2.28;1.35;;;;;;;10.76;64.92;99708.09;10380742;28;20045;-67
2022/12/28 22:12:33;;;;;;;6.40;3.10;;;;;;;10.70;65.54;99678.28;10387120;28;20111;-67
2022/12/28 22:13:22;;;;;;;2.72;1.25;;;;;;;10.78;65.54;99671.94;10386843;28;20092;-68
2022/12/28 22:18:26;;;;;;;7.10;1.63;;;;;;;10.70;65.67;99650.53;10396433;28;20042;-68
2022/12/28 22:23:47;;;;;;;5.13;1.35;;;;;;;10.63;65.99;99650.50;10394131;28;20046;-66
2022/12/28 22:28:49;;;;;;;6.00;1.00;;;;;;;10.60;66.03;99640.13;10396848;28;20041;-71
2022/12/28 22:33:53;;;;;;;3.63;1.40;;;;;;;10.62;66.29;99632.69;10367491;28;20045;-70
2022/12/28 22:38:55;;;;;;;3.92;1.17;;;;;;;10.69;66.22;99638.97;10366056;28;20037;-68
2022/12/28 22:43:56;;;;;;;2.63;0.98;;;;;;;10.78;66.24;99623.53;10363866;28;20037;-67
2022/12/28 22:48:58;;;;;;;3.10;1.60;;;;;;;10.87;66.15;99624.22;10390898;28;20057;-69
2022/12/28 22:53:59;;;;;;;4.88;1.52;;;;;;;10.90;66.11;99616.59;10393850;28;20137;-69
2022/12/28 22:59:01;;;;;;;2.67;1.25;;;;;;;10.91;66.11;99617.41;10382035;28;20042;-68
2022/12/28 23:04:06;;;;;;;3.60;0.98;;;;;;;10.97;66.39;99618.50;10392998;28;20061;-69
2022/12/28 23:09:08;;;;;;;2.60;0.80;;;;;;;11.04;65.71;99597.88;10351756;28;20141;-67
2022/12/28 23:30:21;;;;;;;3.13;0.60;;;;;;;11.54;65.85;99568.09;10392037;28;20038;-69
2022/12/28 23:35:24;;;;;;;1.33;0.65;;;;;;;11.66;66.11;99558.41;10392514;28;20064;-68
2022/12/28 23:40:26;;;;;;;1.95;0.73;;;;;;;11.75;65.91;99562.56;10398058;28;20053;-70
2022/12/28 23:45:28;;;;;;;2.35;0.60;;;;;;;11.87;65.50;99558.25;10370444;28;20046;-68
2022/12/28 23:50:29;;;;;;;2.83;0.70;;;;;;;11.96;65.71;99558.91;10411090;28;20053;-69
2022/12/28 23:55:31;;;;;;;4.22;0.98;;;;;;;12.10;65.46;99538.19;10412736;28;20068;-63
